Time;durP1;ratioP1;P1;durP2;ratioP2;P2;SDS_P1;SDS_P2;PMS_P1;PMS_P2;Temp;Humidity;BMP_temperature;BMP_pressure;BME280_temperature;BME280_humidity;BME280_pressure;Samples;Min_cycle;Max_cycle;Signal;HPM_P1;HPM_P2
2022/02/18 00:00:38;;;;;;;13.13;3.28;;;9.60;98.50;;;;;;4964517;28;20051;-78
2022/02/18 04:45:38;;;;;;;10.35;2.20;;;10.00;99.90;;;;;;5065767;23;20877;-79
2022/02/18 04:48:05;;;;;;;11.52;2.50;;;10.00;99.90;;;;;;4966613;28;20137;-79
2022/02/18 04:50:32;;;;;;;11.00;2.38;;;10.00;99.90;;;;;;4961896;28;20127;-80
2022/02/18 04:52:59;;;;;;;12.70;2.67;;;10.00;99.90;;;;;;4963115;28;20142;-82
2022/02/18 04:55:26;;;;;;;12.63;2.60;;;10.00;99.90;;;;;;4963781;28;20055;-81
2022/02/18 04:57:53;;;;;;;8.68;2.30;;;10.10;99.90;;;;;;4963486;28;20046;-82
2022/02/18 05:00:21;;;;;;;9.40;2.13;;;10.00;99.90;;;;;;4957070;28;20138;-81
2022/02/18 05:02:49;;;;;;;12.68;2.40;;;10.10;99.90;;;;;;4963323;28;20046;-80
2022/02/18 05:05:17;;;;;;;12.38;2.50;;;10.10;99.90;;;;;;4964533;28;20567;-80
2022/02/18 05:07:44;;;;;;;8.43;2.03;;;10.10;99.90;;;;;;4969189;28;20047;-81
2022/02/18 05:10:12;;;;;;;11.30;2.30;;;10.10;99.90;;;;;;4963846;28;20058;-82
2022/02/18 05:12:39;;;;;;;11.25;2.53;;;10.20;99.90;;;;;;4969389;28;20125;-81
2022/02/18 05:15:07;;;;;;;14.77;2.50;;;10.10;99.90;;;;;;4966061;28;20078;-82
2022/02/18 05:17:35;;;;;;;8.90;2.63;;;10.20;99.90;;;;;;4958711;28;20043;-80
2022/02/18 05:20:05;;;;;;;11.00;1.98;;;10.20;99.90;;;;;;4964067;28;20437;-79
2022/02/18 05:22:32;;;;;;;10.13;2.10;;;10.30;99.90;;;;;;4960976;28;20134;-79
2022/02/18 05:24:59;;;;;;;11.88;2.38;;;10.20;99.90;;;;;;4965677;28;20074;-79
2022/02/18 05:27:26;;;;;;;11.68;2.22;;;10.20;99.90;;;;;;4963866;28;20043;-80
2022/02/18 05:29:53;;;;;;;7.60;1.90;;;10.30;99.90;;;;;;4971389;28;20141;-80
2022/02/18 05:32:20;;;;;;;8.40;2.05;;;10.30;99.90;;;;;;4973793;28;20141;-80
2022/02/18 05:34:49;;;;;;;8.38;2.13;;;10.30;99.90;;;;;;4974583;28;20055;-80
2022/02/18 05:37:17;;;;;;;11.68;2.38;;;10.30;99.90;;;;;;4971629;28;20110;-80
2022/02/18 05:39:44;;;;;;;8.95;1.83;;;10.40;99.90;;;;;;4955115;29;20134;-80
2022/02/18 05:42:11;;;;;;;8.43;2.00;;;10.50;99.90;;;;;;4955041;29;20053;-80
2022/02/18 05:44:38;;;;;;;8.48;2.00;;;10.40;99.90;;;;;;4955007;29;20146;-80
2022/02/18 05:47:06;;;;;;;8.43;1.85;;;10.40;99.90;;;;;;4955233;29;20130;-80
2022/02/18 05:49:33;;;;;;;9.80;1.98;;;10.50;99.90;;;;;;4955198;29;20130;-80
2022/02/18 05:52:00;;;;;;;10.60;2.20;;;10.40;99.90;;;;;;4955004;29;20161;-80
2022/02/18 05:54:28;;;;;;;10.77;2.40;;;10.40;99.90;;;;;;4954917;29;20519;-80
2022/02/18 05:56:56;;;;;;;12.98;2.47;;;10.40;99.90;;;;;;4956770;28;20130;-80
2022/02/18 05:59:23;;;;;;;11.80;2.85;;;10.40;99.90;;;;;;4973756;28;20219;-80
2022/02/18 06:01:50;;;;;;;12.35;2.90;;;10.30;99.90;;;;;;4973906;28;20137;-80
2022/02/18 06:04:17;;;;;;;10.27;2.92;;;10.30;99.90;;;;;;4974323;28;20142;-80
2022/02/18 06:06:46;;;;;;;11.35;2.88;;;10.30;99.90;;;;;;4974195;28;20113;-80
2022/02/18 06:09:14;;;;;;;13.73;2.90;;;10.10;99.90;;;;;;4974181;28;20506;-80
2022/02/18 06:11:42;;;;;;;10.98;2.58;;;10.20;99.90;;;;;;4974464;28;20057;-80
2022/02/18 06:14:10;;;;;;;11.38;2.70;;;10.10;99.90;;;;;;4974247;28;20502;-81
2022/02/18 06:16:37;;;;;;;15.48;3.05;;;10.10;99.90;;;;;;4974178;28;20138;-80
2022/02/18 06:19:07;;;;;;;7.72;1.95;;;10.10;99.90;;;;;;4964214;28;20142;-81
2022/02/18 06:21:34;;;;;;;8.93;2.08;;;10.10;99.90;;;;;;4954660;29;20512;-81
2022/02/18 06:24:01;;;;;;;11.52;2.97;;;10.00;99.90;;;;;;4954617;29;20058;-81
2022/02/18 06:26:28;;;;;;;8.77;2.30;;;10.10;99.90;;;;;;4954799;29;20145;-80
2022/02/18 06:28:57;;;;;;;8.32;1.92;;;10.00;99.90;;;;;;4954748;29;20560;-81
2022/02/18 06:31:24;;;;;;;8.18;2.38;;;10.10;99.90;;;;;;4954654;29;20134;-81
2022/02/18 06:33:51;;;;;;;10.90;2.67;;;10.10;99.90;;;;;;4954618;29;20146;-80
2022/02/18 06:36:18;;;;;;;8.05;1.95;;;10.20;99.90;;;;;;4954435;29;20457;-81
2022/02/18 06:38:45;;;;;;;8.02;2.10;;;10.10;99.90;;;;;;4954492;29;20403;-81
2022/02/18 06:41:12;;;;;;;10.15;2.47;;;10.10;99.90;;;;;;4954693;29;20051;-81
2022/02/18 06:43:40;;;;;;;9.45;2.20;;;10.20;99.90;;;;;;4955885;28;20095;-81
2022/02/18 06:46:09;;;;;;;11.63;2.47;;;10.10;99.90;;;;;;4958877;28;20094;-81
2022/02/18 06:48:36;;;;;;;13.93;2.40;;;10.10;99.90;;;;;;4977546;28;20507;-81
2022/02/18 06:51:03;;;;;;;7.85;2.42;;;10.00;99.90;;;;;;4977397;28;20375;-81
2022/02/18 06:53:30;;;;;;;11.93;2.80;;;10.20;99.90;;;;;;4977361;28;20142;-80
2022/02/18 06:55:57;;;;;;;8.75;2.40;;;10.20;99.90;;;;;;4977637;28;20046;-80
2022/02/18 06:58:24;;;;;;;12.15;2.70;;;10.00;99.90;;;;;;4977426;28;20142;-81
2022/02/18 07:00:51;;;;;;;10.05;2.75;;;10.10;99.90;;;;;;4977228;28;20562;-81
2022/02/18 07:03:20;;;;;;;8.77;2.13;;;10.10;99.90;;;;;;4977234;28;20487;-81
2022/02/18 07:05:48;;;;;;;9.30;2.20;;;10.00;99.90;;;;;;4977506;28;20130;-81
2022/02/18 07:08:16;;;;;;;12.27;2.20;;;10.10;99.90;;;;;;4977345;28;20062;-81
2022/02/18 07:10:43;;;;;;;10.85;2.22;;;10.10;99.90;;;;;;4977126;28;20122;-81
2022/02/18 07:13:11;;;;;;;11.18;2.60;;;10.00;99.90;;;;;;4976961;28;20051;-81
2022/02/18 07:15:38;;;;;;;8.07;2.20;;;10.00;99.90;;;;;;4964934;28;20086;-80
2022/02/18 07:18:06;;;;;;;9.13;2.30;;;9.90;99.90;;;;;;4957366;29;20094;-81
2022/02/18 07:20:34;;;;;;;8.90;2.17;;;9.90;99.90;;;;;;4957659;29;20466;-81
2022/02/18 07:23:01;;;;;;;8.75;2.00;;;9.90;99.90;;;;;;4957480;29;20138;-81
2022/02/18 07:25:29;;;;;;;14.70;2.63;;;9.90;99.90;;;;;;4957650;29;20078;-81
2022/02/18 07:27:56;;;;;;;9.85;2.38;;;9.90;99.90;;;;;;4957495;29;20047;-81
2022/02/18 07:30:23;;;;;;;9.00;2.20;;;9.90;99.90;;;;;;4957386;29;20047;-80
2022/02/18 07:32:51;;;;;;;8.45;2.05;;;9.80;99.90;;;;;;4957327;29;20090;-80
2022/02/18 07:35:18;;;;;;;11.07;2.25;;;9.90;99.90;;;;;;4957332;29;20043;-80
2022/02/18 07:37:49;;;;;;;9.50;2.78;;;9.90;99.90;;;;;;4957639;29;20133;-81
2022/02/18 07:40:16;;;;;;;14.18;3.30;;;9.90;99.90;;;;;;4957397;29;20054;-81
2022/02/18 07:42:44;;;;;;;11.50;3.17;;;9.90;99.90;;;;;;4960231;28;20133;-81
2022/02/18 07:45:11;;;;;;;12.52;3.22;;;9.90;99.90;;;;;;4968837;28;20406;-81
2022/02/18 07:47:38;;;;;;;11.50;2.53;;;9.90;99.90;;;;;;4976760;28;20057;-81
2022/02/18 07:50:07;;;;;;;8.43;2.25;;;10.00;99.90;;;;;;4976461;28;20126;-81
2022/02/18 07:52:36;;;;;;;9.20;2.20;;;10.00;99.90;;;;;;4976317;28;20134;-81
2022/02/18 07:55:07;;;;;;;6.38;1.52;;;10.00;99.90;;;;;;4975486;28;20055;-81
2022/02/18 07:57:34;;;;;;;6.50;1.73;;;10.10;99.90;;;;;;4976287;28;20058;-81
2022/02/18 08:00:01;;;;;;;4.22;1.10;;;10.30;99.90;;;;;;4976238;28;20050;-80
2022/02/18 08:02:28;;;;;;;4.82;1.45;;;10.30;99.90;;;;;;4976320;28;20227;-81
2022/02/18 08:04:55;;;;;;;7.45;1.67;;;10.50;99.90;;;;;;4976072;28;20082;-81
2022/02/18 08:07:22;;;;;;;7.93;1.40;;;10.70;99.90;;;;;;4976240;28;20046;-81
2022/02/18 08:09:50;;;;;;;6.30;1.80;;;10.70;99.90;;;;;;4976110;28;20125;-81
2022/02/18 08:12:18;;;;;;;4.18;1.20;;;10.70;99.90;;;;;;4968851;28;20137;-81
2022/02/18 08:14:45;;;;;;;6.57;1.30;;;10.90;99.90;;;;;;4974379;28;20130;-81
2022/02/18 08:17:12;;;;;;;5.95;1.35;;;10.90;99.90;;;;;;4974258;28;20150;-81
2022/02/18 08:19:40;;;;;;;4.85;1.10;;;11.00;99.90;;;;;;4975777;28;20134;-81
2022/02/18 08:22:07;;;;;;;4.25;1.00;;;11.10;99.90;;;;;;4975809;28;20046;-81
2022/02/18 08:24:34;;;;;;;5.35;1.17;;;11.20;99.90;;;;;;4975769;28;20047;-81
2022/02/18 08:27:01;;;;;;;6.15;1.45;;;11.20;99.90;;;;;;4975667;28;20475;-81
2022/02/18 08:29:30;;;;;;;7.95;1.80;;;11.40;99.90;;;;;;4970237;28;20050;-81
2022/02/18 08:31:57;;;;;;;6.68;1.73;;;11.50;99.90;;;;;;4974089;28;20134;-81
2022/02/18 08:34:24;;;;;;;7.18;1.80;;;11.60;99.90;;;;;;4975692;28;20046;-81
2022/02/18 08:36:52;;;;;;;6.50;1.80;;;11.70;99.90;;;;;;4975515;28;20062;-80
2022/02/18 08:39:19;;;;;;;6.10;1.98;;;11.70;99.90;;;;;;4975567;28;20051;-81
2022/02/18 08:41:46;;;;;;;5.30;1.33;;;11.80;99.90;;;;;;4975543;28;20179;-81
2022/02/18 08:44:14;;;;;;;4.60;1.10;;;11.80;99.90;;;;;;4974356;28;20086;-81
2022/02/18 08:46:43;;;;;;;5.95;1.20;;;12.00;99.90;;;;;;4975499;28;20078;-81
2022/02/18 08:49:10;;;;;;;6.43;1.40;;;12.00;99.90;;;;;;4967613;28;20129;-81
2022/02/18 08:51:38;;;;;;;3.83;1.40;;;12.10;99.90;;;;;;4975144;28;20086;-81
2022/02/18 08:54:05;;;;;;;5.13;1.10;;;12.00;99.90;;;;;;4975117;28;20054;-81
2022/02/18 08:56:32;;;;;;;3.78;1.13;;;12.00;99.90;;;;;;4975277;28;20503;-81
2022/02/18 08:59:00;;;;;;;3.45;1.02;;;12.10;99.90;;;;;;4975017;28;20141;-80
2022/02/18 09:01:28;;;;;;;5.32;1.30;;;12.30;99.90;;;;;;4975267;28;20133;-81
2022/02/18 09:03:57;;;;;;;6.10;1.40;;;12.30;99.90;;;;;;4975122;28;20055;-80
2022/02/18 09:06:25;;;;;;;5.05;1.30;;;12.40;99.90;;;;;;4974817;28;20050;-81
2022/02/18 09:08:52;;;;;;;6.80;1.23;;;12.40;99.90;;;;;;4975101;28;20042;-81
2022/02/18 09:11:22;;;;;;;5.32;1.45;;;12.50;99.90;;;;;;4974914;28;20471;-81
2022/02/18 09:13:49;;;;;;;6.70;1.50;;;12.60;99.90;;;;;;4957105;28;20158;-81
2022/02/18 09:16:17;;;;;;;3.88;1.15;;;12.60;99.90;;;;;;4955618;29;20126;-81
2022/02/18 09:18:44;;;;;;;3.70;0.80;;;12.60;99.90;;;;;;4955413;29;20139;-81
2022/02/18 09:21:13;;;;;;;3.72;1.00;;;12.70;99.90;;;;;;4955722;29;20145;-81
2022/02/18 09:23:40;;;;;;;3.58;0.98;;;12.80;99.90;;;;;;4955353;29;20051;-81
2022/02/18 09:26:08;;;;;;;3.63;0.90;;;12.90;99.90;;;;;;4955330;29;20563;-81
2022/02/18 09:28:35;;;;;;;3.60;0.70;;;12.90;99.90;;;;;;4955521;29;20089;-81
2022/02/18 09:31:02;;;;;;;2.70;0.73;;;13.00;99.90;;;;;;4955254;29;20405;-81
2022/02/18 09:33:33;;;;;;;3.72;0.90;;;;;;;;;;4955127;29;20172;-81
2022/02/18 09:36:08;;;;;;;2.33;0.80;;;;;;;;;;4955227;29;20509;-81
2022/02/18 09:38:38;;;;;;;2.92;0.73;;;;;;;;;;4955416;29;20071;-81
2022/02/18 09:41:07;;;;;;;4.97;1.10;;;13.20;99.90;;;;;;4965146;28;20114;-81
2022/02/18 09:43:35;;;;;;;3.53;1.00;;;13.30;99.90;;;;;;4974218;28;20053;-80
2022/02/18 09:46:03;;;;;;;5.20;1.00;;;13.30;99.90;;;;;;4970880;28;20046;-80
2022/02/18 09:48:31;;;;;;;3.40;0.70;;;13.40;97.90;;;;;;4954810;29;20133;-80
2022/02/18 09:50:58;;;;;;;5.47;1.10;;;13.50;99.90;;;;;;4955139;29;20110;-80
2022/02/18 09:53:26;;;;;;;3.03;0.90;;;13.40;99.90;;;;;;4954920;29;20419;-78
2022/02/18 09:55:56;;;;;;;4.78;1.00;;;13.60;99.90;;;;;;4954984;29;20413;-78
2022/02/18 09:58:24;;;;;;;2.58;0.80;;;13.70;99.90;;;;;;4954896;29;20429;-79
2022/02/18 10:00:52;;;;;;;4.47;0.80;;;13.70;99.90;;;;;;4955094;29;20428;-78
2022/02/18 10:03:19;;;;;;;3.05;0.77;;;13.80;99.90;;;;;;4954928;29;20047;-78
2022/02/18 10:05:48;;;;;;;3.53;0.77;;;13.80;99.90;;;;;;4954910;29;20471;-78
2022/02/18 10:08:18;;;;;;;3.30;0.80;;;14.00;99.90;;;;;;4955225;29;20047;-78
2022/02/18 10:11:00;;;;;;;4.35;0.70;;;14.00;99.90;;;;;;4954872;29;20416;-78
2022/02/18 10:13:34;;;;;;;2.80;0.77;;;14.10;99.90;;;;;;4955068;28;20055;-77
2022/02/18 10:16:03;;;;;;;2.60;0.53;;;14.10;99.90;;;;;;4954662;29;20047;-77
2022/02/18 10:18:48;;;;;;;4.10;0.93;;;14.10;99.90;;;;;;4957180;28;20398;-78
2022/02/18 10:21:16;;;;;;;2.80;0.60;;;14.20;99.90;;;;;;4965449;28;20130;-77
2022/02/18 10:23:43;;;;;;;1.70;0.60;;;14.20;99.90;;;;;;4965909;28;20126;-77
2022/02/18 10:26:12;;;;;;;2.78;0.80;;;14.40;99.90;;;;;;4967568;28;20051;-78
2022/02/18 10:28:40;;;;;;;3.60;0.80;;;14.40;99.90;;;;;;4967109;28;20043;-78
2022/02/18 10:31:09;;;;;;;3.05;0.60;;;14.30;99.90;;;;;;4965876;28;20134;-78
2022/02/18 10:33:37;;;;;;;2.88;0.63;;;14.40;99.90;;;;;;4969359;28;20078;-79
2022/02/18 10:36:09;;;;;;;4.63;0.80;;;14.50;99.90;;;;;;4977877;28;20066;-78
2022/02/18 10:38:39;;;;;;;3.38;0.70;;;14.50;99.90;;;;;;4977609;28;20465;-78
2022/02/18 10:41:23;;;;;;;4.35;0.77;;;14.60;99.90;;;;;;4977846;28;20047;-79
2022/02/18 10:43:55;;;;;;;3.63;0.68;;;14.60;99.90;;;;;;4977554;28;20047;-79
2022/02/18 10:46:44;;;;;;;4.05;0.77;;;14.70;99.90;;;;;;4977757;28;20054;-79
2022/02/18 10:49:22;;;;;;;2.58;0.50;;;14.80;99.90;;;;;;4977499;28;20058;-78
2022/02/18 10:51:51;;;;;;;3.60;0.98;;;14.80;99.60;;;;;;4977625;28;20047;-78
2022/02/18 10:54:20;;;;;;;2.92;0.90;;;14.90;99.70;;;;;;4975736;28;20378;-79
2022/02/18 10:56:49;;;;;;;4.78;0.82;;;15.00;99.30;;;;;;4977294;28;20055;-79
2022/02/18 10:59:31;;;;;;;2.90;0.75;;;15.00;94.20;;;;;;4958391;28;20559;-79
2022/02/18 11:01:59;;;;;;;3.30;0.93;;;14.90;93.60;;;;;;4958022;29;20503;-79
2022/02/18 11:04:28;;;;;;;2.92;0.90;;;15.00;93.10;;;;;;4960913;28;20043;-78
2022/02/18 11:07:13;;;;;;;4.63;0.90;;;15.10;92.90;;;;;;4970580;28;20073;-79
2022/02/18 11:09:41;;;;;;;2.67;1.00;;;15.20;92.50;;;;;;4965132;28;20071;-78
2022/02/18 11:12:12;;;;;;;4.55;1.00;;;15.20;92.40;;;;;;4965395;28;20130;-78
2022/02/18 11:14:45;;;;;;;2.90;0.75;;;15.20;92.30;;;;;;4968808;28;20038;-78
2022/02/18 11:17:13;;;;;;;1.95;0.70;;;15.30;92.30;;;;;;4967315;28;20535;-78
2022/02/18 11:19:44;;;;;;;4.60;1.00;;;15.30;92.20;;;;;;4963294;28;20459;-78
2022/02/18 11:22:11;;;;;;;3.30;0.77;;;15.30;92.30;;;;;;4967831;28;20055;-79
2022/02/18 11:24:39;;;;;;;4.25;1.00;;;15.30;92.10;;;;;;4969353;28;20044;-80
2022/02/18 11:27:06;;;;;;;6.18;1.00;;;15.30;92.00;;;;;;4974654;28;20051;-79
2022/02/18 11:29:36;;;;;;;5.55;1.30;;;15.20;92.10;;;;;;4961150;28;20070;-80
2022/02/18 11:32:19;;;;;;;3.60;1.20;;;15.30;92.10;;;;;;4968254;28;20129;-80
2022/02/18 11:35:12;;;;;;;5.88;1.00;;;15.40;92.20;;;;;;4963185;28;20492;-79
2022/02/18 11:38:16;;;;;;;3.28;0.95;;;15.40;92.20;;;;;;4972606;28;20043;-79
2022/02/18 11:40:53;;;;;;;3.10;0.80;;;15.50;92.20;;;;;;4959759;28;20138;-79
2022/02/18 11:43:27;;;;;;;3.20;0.75;;;15.60;91.80;;;;;;4975502;28;20141;-79
2022/02/18 11:46:06;;;;;;;4.82;1.05;;;15.70;91.60;;;;;;4941842;29;20390;-78
2022/02/18 11:48:45;;;;;;;3.97;0.80;;;15.80;91.30;;;;;;4945526;29;20135;-79
2022/02/18 11:51:14;;;;;;;3.72;0.80;;;15.90;91.00;;;;;;4946307;29;20150;-79
2022/02/18 11:53:44;;;;;;;6.65;2.00;;;15.90;91.20;;;;;;4948361;29;20054;-79
2022/02/18 11:56:14;;;;;;;5.25;1.10;;;16.20;96.90;;;;;;4941814;29;20134;-80
2022/02/18 11:58:54;;;;;;;4.60;0.95;;;16.20;90.10;;;;;;4948611;29;20138;-82
2022/02/18 12:02:07;;;;;;;3.58;0.90;;;16.20;88.90;;;;;;4946058;29;20090;-80
2022/02/18 12:04:34;;;;;;;4.97;1.13;;;16.30;91.60;;;;;;4945616;29;20040;-85
2022/02/18 12:07:32;;;;;;;5.28;1.25;;;16.00;95.40;;;;;;4945253;29;20132;-88
2022/02/18 12:10:13;;;;;;;4.35;0.80;;;16.50;96.00;;;;;;4944864;29;20043;-88
2022/02/18 12:12:42;;;;;;;5.70;1.10;;;16.60;97.60;;;;;;4947997;29;20138;-89
2022/02/18 12:15:15;;;;;;;5.32;1.13;;;16.60;98.30;;;;;;4943620;29;20063;-86
2022/02/18 12:17:49;;;;;;;6.63;1.00;;;16.50;98.40;;;;;;4948384;29;20077;-84
2022/02/18 12:20:19;;;;;;;5.50;0.80;;;16.70;95.40;;;;;;4950684;28;20166;-89
2022/02/18 12:22:46;;;;;;;6.68;1.10;;;16.70;96.20;;;;;;4950424;29;20098;-86
2022/02/18 12:25:27;;;;;;;4.20;1.27;;;16.70;90.50;;;;;;4947128;29;20139;-83
2022/02/18 12:28:20;;;;;;;4.63;0.90;;;16.70;87.20;;;;;;4947451;29;20043;-83
2022/02/18 12:30:57;;;;;;;6.93;0.90;;;16.90;87.10;;;;;;4942577;29;20143;-83
2022/02/18 12:33:29;;;;;;;3.20;0.90;;;16.70;86.70;;;;;;4949432;29;20504;-83
2022/02/18 12:35:56;;;;;;;5.43;0.90;;;16.90;87.80;;;;;;4936535;29;20489;-84
2022/02/18 12:38:23;;;;;;;6.70;1.02;;;17.10;84.90;;;;;;4937063;29;20090;-83
2022/02/18 12:40:52;;;;;;;6.03;1.02;;;17.10;99.60;;;;;;4938332;29;20130;-85
2022/02/18 12:43:20;;;;;;;5.65;1.10;;;17.10;82.60;;;;;;4948181;29;20142;-84
2022/02/18 12:45:55;;;;;;;6.80;1.10;;;17.30;82.20;;;;;;4966956;28;20134;-84
2022/02/18 12:48:34;;;;;;;;;;;17.40;97.10;;;;;;4966750;28;20054;-81
2022/02/18 12:51:03;;;;;;;13.88;6.47;;;17.70;96.50;;;;;;4962168;28;19922;-82
2022/02/18 12:53:31;;;;;;;7.60;1.20;;;17.60;96.40;;;;;;4967558;28;20094;-82
2022/02/18 12:55:58;;;;;;;6.63;0.93;;;17.50;96.30;;;;;;4965869;28;20448;-83
2022/02/18 12:58:25;;;;;;;4.20;0.90;;;17.70;96.20;;;;;;4967735;28;20053;-87
2022/02/18 13:00:52;;;;;;;4.35;0.80;;;17.70;96.10;;;;;;4958594;28;20133;-91
2022/02/18 13:03:19;;;;;;;3.78;0.88;;;17.70;95.60;;;;;;4965406;28;20585;-83
2022/02/18 13:05:48;;;;;;;5.22;1.00;;;17.70;95.40;;;;;;4966872;28;20618;-85
2022/02/18 13:08:24;;;;;;;7.22;1.00;;;17.60;95.50;;;;;;4963669;28;20649;-82
2022/02/18 13:10:54;;;;;;;4.10;0.90;;;17.50;95.20;;;;;;4954603;29;20074;-82
2022/02/18 13:13:23;;;;;;;5.55;0.75;;;17.50;94.90;;;;;;4955435;29;20057;-82
2022/02/18 13:15:55;;;;;;;8.00;1.15;;;17.50;95.10;;;;;;4954250;29;20082;-82
2022/02/18 13:18:25;;;;;;;3.00;0.80;;;17.40;94.80;;;;;;4954871;29;20047;-82
2022/02/18 13:20:56;;;;;;;4.80;0.98;;;17.50;94.60;;;;;;4955184;29;20087;-82
2022/02/18 13:23:29;;;;;;;3.35;0.70;;;17.50;94.50;;;;;;4955084;29;20518;-81
2022/02/18 13:25:58;;;;;;;3.70;0.70;;;17.50;94.60;;;;;;4955215;29;20158;-81
2022/02/18 13:28:28;;;;;;;6.45;0.80;;;17.60;94.40;;;;;;4955102;29;20047;-81
2022/02/18 13:30:58;;;;;;;7.30;0.90;;;17.50;94.00;;;;;;4955152;29;20043;-82
2022/02/18 13:33:28;;;;;;;3.78;0.90;;;17.70;94.20;;;;;;4955455;29;20058;-82
2022/02/18 13:36:03;;;;;;;4.68;1.08;;;17.60;93.50;;;;;;4956166;28;20772;-81
2022/02/18 13:38:33;;;;;;;6.75;1.33;;;17.50;93.80;;;;;;4955336;29;20054;-82
2022/02/18 13:41:11;;;;;;;3.75;0.93;;;17.50;93.20;;;;;;4954986;29;20082;-81
2022/02/18 13:43:41;;;;;;;5.55;1.05;;;17.30;93.30;;;;;;4954972;29;20055;-82
2022/02/18 13:46:10;;;;;;;6.45;1.10;;;17.40;92.90;;;;;;4955253;29;20176;-81
2022/02/18 13:48:39;;;;;;;3.85;0.90;;;17.40;93.00;;;;;;4955222;29;20074;-82
2022/02/18 13:51:08;;;;;;;7.40;0.88;;;17.30;93.10;;;;;;4955017;29;20098;-82
2022/02/18 13:53:37;;;;;;;6.15;1.08;;;17.30;93.10;;;;;;4954328;28;20134;-81
2022/02/18 13:56:24;;;;;;;6.75;1.00;;;17.10;93.20;;;;;;4954834;29;20171;-81
2022/02/18 13:58:52;;;;;;;5.30;1.02;;;17.20;93.60;;;;;;4955089;29;20134;-81
2022/02/18 14:01:21;;;;;;;6.63;1.33;;;16.90;93.90;;;;;;4954981;29;20110;-81
2022/02/18 14:03:59;;;;;;;3.47;0.90;;;16.80;94.00;;;;;;4954903;29;20379;-82
2022/02/18 14:06:32;;;;;;;5.55;0.90;;;16.80;94.10;;;;;;4954788;29;20129;-81
2022/02/18 14:08:59;;;;;;;4.68;1.10;;;16.90;94.30;;;;;;4955817;28;20138;-81
2022/02/18 14:11:28;;;;;;;4.65;1.20;;;16.80;94.00;;;;;;4954994;29;20461;-81
2022/02/18 14:14:16;;;;;;;5.75;1.25;;;16.60;94.30;;;;;;4954610;29;20078;-81
2022/02/18 14:16:58;;;;;;;6.90;1.10;;;16.70;94.00;;;;;;4954779;29;20106;-81
2022/02/18 14:19:45;;;;;;;3.88;1.02;;;16.70;93.90;;;;;;4954706;29;20126;-81
2022/02/18 14:22:14;;;;;;;7.40;1.00;;;16.70;93.80;;;;;;4959891;28;20134;-80
2022/02/18 14:24:42;;;;;;;4.43;1.10;;;16.60;94.00;;;;;;4965053;28;20137;-82
2022/02/18 14:27:14;;;;;;;5.90;1.10;;;16.50;94.10;;;;;;4963166;28;20102;-82
2022/02/18 14:29:53;;;;;;;6.53;1.10;;;16.40;93.90;;;;;;4967291;28;20113;-82
2022/02/18 14:32:29;;;;;;;4.90;1.30;;;16.60;93.90;;;;;;4963537;28;20130;-82
2022/02/18 14:35:01;;;;;;;4.22;1.00;;;16.50;93.70;;;;;;4965020;28;20138;-82
2022/02/18 14:37:30;;;;;;;5.22;1.20;;;16.60;93.60;;;;;;4964781;28;20070;-82
2022/02/18 14:40:10;;;;;;;6.55;1.00;;;16.60;93.70;;;;;;4960283;28;20047;-81
2022/02/18 14:42:38;;;;;;;3.78;1.00;;;16.60;93.40;;;;;;4967590;28;20061;-82
2022/02/18 14:45:09;;;;;;;4.55;1.17;;;16.70;93.40;;;;;;4973258;28;20087;-84
2022/02/18 14:47:38;;;;;;;3.15;1.08;;;16.70;93.30;;;;;;4957916;28;20130;-82
2022/02/18 14:50:09;;;;;;;3.28;0.80;;;16.90;93.30;;;;;;4967913;28;20050;-81
2022/02/18 14:52:37;;;;;;;3.08;0.90;;;16.90;93.20;;;;;;4959210;28;20501;-81
2022/02/18 14:55:08;;;;;;;5.00;0.90;;;16.90;93.30;;;;;;4962101;28;20055;-82
2022/02/18 14:57:36;;;;;;;3.42;0.68;;;16.80;93.30;;;;;;4962930;28;20133;-82
2022/02/18 15:00:04;;;;;;;6.30;2.30;;;16.80;93.40;;;;;;4964740;28;20061;-82
2022/02/18 15:02:31;;;;;;;5.13;1.40;;;16.70;93.50;;;;;;4961799;28;20085;-82
2022/02/18 15:04:58;;;;;;;4.72;1.15;;;16.60;93.60;;;;;;4967383;28;20146;-80
2022/02/18 15:07:25;;;;;;;3.28;0.80;;;16.50;93.70;;;;;;4961037;28;20475;-82
2022/02/18 15:09:54;;;;;;;5.28;0.90;;;16.50;94.00;;;;;;4966065;28;20404;-83
2022/02/18 15:12:22;;;;;;;4.60;1.10;;;16.60;93.80;;;;;;4967183;28;20146;-81
2022/02/18 15:14:49;;;;;;;3.92;0.93;;;16.60;93.90;;;;;;4969284;28;20047;-83
2022/02/18 15:17:19;;;;;;;3.72;0.80;;;16.70;94.10;;;;;;4966350;28;20082;-82
2022/02/18 15:19:49;;;;;;;4.30;1.10;;;17.00;94.00;;;;;;4967035;28;20090;-81
2022/02/18 15:22:17;;;;;;;2.85;0.90;;;17.50;93.00;;;;;;4957273;28;20051;-82
2022/02/18 15:24:44;;;;;;;4.18;0.70;;;17.90;92.20;;;;;;4962549;28;20075;-82
2022/02/18 15:27:14;;;;;;;3.72;1.30;;;17.90;92.00;;;;;;4965018;28;20400;-82
2022/02/18 15:35:11;;;;;;;3.53;0.77;;;17.80;91.50;;;;;;4960998;28;20172;-82
2022/02/18 15:37:39;;;;;;;5.57;1.08;;;17.70;91.80;;;;;;4966172;28;20051;-81
2022/02/18 15:42:59;;;;;;;3.33;0.98;;;17.40;92.10;;;;;;4965388;28;20058;-82
2022/02/18 15:45:26;;;;;;;7.10;1.10;;;17.20;92.20;;;;;;4964365;28;20061;-87
2022/02/18 15:47:53;;;;;;;4.07;0.90;;;17.10;92.40;;;;;;4950295;28;20511;-81
2022/02/18 15:50:21;;;;;;;3.90;1.20;;;17.10;92.50;;;;;;4967777;28;20471;-82
2022/02/18 15:52:48;;;;;;;3.97;1.05;;;17.10;92.70;;;;;;4957917;28;20474;-83
2022/02/18 15:55:16;;;;;;;4.47;1.00;;;17.00;92.90;;;;;;4962391;28;20078;-83
2022/02/18 15:57:43;;;;;;;4.85;1.00;;;16.90;93.10;;;;;;4976297;28;20047;-82
2022/02/18 16:00:13;;;;;;;4.35;0.95;;;16.60;93.30;;;;;;4976103;28;20086;-83
2022/02/18 16:02:42;;;;;;;2.53;0.90;;;16.60;93.60;;;;;;4975959;28;20149;-83
2022/02/18 16:05:10;;;;;;;7.88;1.25;;;16.60;93.90;;;;;;4971428;28;20057;-83
2022/02/18 16:07:38;;;;;;;4.50;0.77;;;16.50;94.10;;;;;;4960259;28;20048;-83
2022/02/18 16:10:08;;;;;;;3.40;0.90;;;16.50;94.30;;;;;;4956570;29;20424;-84
2022/02/18 16:12:36;;;;;;;5.28;0.98;;;16.30;94.50;;;;;;4957045;29;20062;-83
2022/02/18 16:15:04;;;;;;;3.97;0.93;;;16.40;94.80;;;;;;4958025;28;20142;-84
2022/02/18 16:17:36;;;;;;;5.28;1.08;;;16.20;95.00;;;;;;4963372;28;20126;-84
2022/02/18 16:20:04;;;;;;;3.83;1.17;;;16.30;95.20;;;;;;4965256;28;20460;-84
2022/02/18 16:22:33;;;;;;;3.80;1.17;;;16.00;95.40;;;;;;4963719;28;20401;-81
2022/02/18 16:25:00;;;;;;;4.50;1.05;;;16.20;95.70;;;;;;4974177;28;20130;-80
2022/02/18 16:27:29;;;;;;;3.70;1.00;;;16.20;96.10;;;;;;4973370;28;20551;-81
2022/02/18 16:29:57;;;;;;;4.15;1.00;;;16.00;96.60;;;;;;4975034;28;20125;-80
2022/02/18 16:32:24;;;;;;;3.58;0.90;;;15.90;96.60;;;;;;4975076;28;20055;-81
2022/02/18 16:34:54;;;;;;;3.88;1.05;;;15.90;96.90;;;;;;4974763;28;20488;-80
2022/02/18 16:37:23;;;;;;;3.35;1.00;;;15.90;97.20;;;;;;4974617;28;20054;-79
2022/02/18 16:39:52;;;;;;;4.00;0.93;;;15.80;97.40;;;;;;4974984;28;20038;-80
2022/02/18 16:42:21;;;;;;;3.80;0.95;;;15.80;97.80;;;;;;4972807;28;20488;-81
2022/02/18 16:44:48;;;;;;;4.50;1.02;;;15.60;97.90;;;;;;4970473;28;20057;-81
2022/02/18 16:47:16;;;;;;;4.78;0.93;;;15.70;98.20;;;;;;4974486;28;20138;-81
2022/02/18 16:49:43;;;;;;;2.40;0.85;;;15.70;98.50;;;;;;4971197;28;20049;-82
2022/02/18 16:52:12;;;;;;;3.40;0.90;;;15.60;98.60;;;;;;4964962;28;20047;-82
2022/02/18 16:54:41;;;;;;;3.58;1.00;;;15.60;98.80;;;;;;4966107;28;20046;-82
2022/02/18 16:57:09;;;;;;;6.60;1.35;;;15.60;99.10;;;;;;4968641;28;20496;-82
2022/02/18 16:59:36;;;;;;;3.30;1.00;;;15.50;99.40;;;;;;4958052;28;20058;-82
2022/02/18 17:02:05;;;;;;;3.78;1.10;;;15.50;99.90;;;;;;4966020;28;20043;-81
2022/02/18 17:04:32;;;;;;;3.00;1.08;;;15.40;99.90;;;;;;4963271;28;20125;-82
2022/02/18 17:07:00;;;;;;;2.60;1.13;;;15.30;99.90;;;;;;4962654;28;20134;-81
2022/02/18 17:09:30;;;;;;;2.67;1.00;;;15.40;99.80;;;;;;4969605;28;20077;-81
2022/02/18 17:11:59;;;;;;;3.80;1.15;;;15.30;99.80;;;;;;4967427;28;20545;-82
2022/02/18 17:14:26;;;;;;;4.45;1.13;;;15.40;99.90;;;;;;4959071;28;20057;-82
2022/02/18 17:16:55;;;;;;;4.05;1.13;;;15.40;99.90;;;;;;4970462;28;20555;-84
2022/02/18 17:19:22;;;;;;;3.20;1.08;;;15.30;99.70;;;;;;4972186;28;21640;-86
2022/02/18 17:21:51;;;;;;;2.22;0.90;;;15.30;99.70;;;;;;4966855;28;20596;-84
2022/02/18 17:24:19;;;;;;;5.10;1.20;;;15.20;99.50;;;;;;4964975;28;20048;-86
2022/02/18 17:26:49;;;;;;;3.53;1.00;;;15.20;99.50;;;;;;4973183;28;20074;-87
2022/02/18 17:29:16;;;;;;;2.72;1.00;;;15.10;99.90;;;;;;4967958;28;20444;-87
2022/02/18 17:31:43;;;;;;;4.53;1.08;;;15.20;99.70;;;;;;4975080;28;20106;-87
2022/02/18 17:34:11;;;;;;;2.92;1.00;;;15.20;99.50;;;;;;4972062;28;20094;-84
2022/02/18 17:36:38;;;;;;;3.00;0.80;;;15.20;99.50;;;;;;4974201;28;20134;-85
2022/02/18 17:39:05;;;;;;;4.25;0.82;;;15.10;99.70;;;;;;4964203;28;20101;-85
2022/02/18 17:41:32;;;;;;;3.70;1.08;;;15.20;99.20;;;;;;4964506;28;20047;-84
2022/02/18 17:44:01;;;;;;;1.85;0.68;;;15.20;99.20;;;;;;4963259;28;20054;-86
2022/02/18 17:46:29;;;;;;;2.17;0.90;;;15.30;99.30;;;;;;4969992;28;20583;-82
2022/02/18 17:48:56;;;;;;;4.43;0.80;;;15.20;99.10;;;;;;4966507;28;20507;-82
2022/02/18 17:51:23;;;;;;;3.25;0.68;;;15.20;99.20;;;;;;4959118;28;20185;-84